Time;durP1;ratioP1;P1;durP2;ratioP2;P2;SDS_P1;SDS_P2;PMS_P1;PMS_P2;Temp;Humidity;BMP_temperature;BMP_pressure;BME280_temperature;BME280_humidity;BME280_pressure;Samples;Min_cycle;Max_cycle;Signal;HPM_P1;HPM_P2
2022/05/24 00:01:12;;;;;;;;;;;;;;;-140.72;100.00;52541.03;4957746;29;20029;-67
2022/05/24 00:03:37;;;;;;;;;;;;;;;-140.72;100.00;52557.25;4940619;29;20426;-67
2022/05/24 00:06:03;;;;;;;;;;;;;;;-140.72;100.00;52557.25;4957598;29;20382;-67
2022/05/24 00:08:28;;;;;;;;;;;;;;;-140.72;100.00;52569.44;4957536;29;19918;-67
2022/05/24 00:10:54;;;;;;;;;;;;;;;-140.72;100.00;52563.34;4958138;29;19934;-67
2022/05/24 00:13:19;;;;;;;;;;;;;;;-140.72;100.00;52551.16;4940003;29;20401;-67
2022/05/24 00:15:45;;;;;;;;;;;;;;;-140.72;100.00;52553.19;4957645;29;19919;-68
2022/05/24 00:18:15;;;;;;;;;;;;;;;-140.72;100.00;52601.91;4957435;29;20275;-67
2022/05/24 00:20:50;;;;;;;;;;;;;;;-140.72;100.00;52534.94;4957447;29;20314;-67
2022/05/24 00:23:17;;;;;;;;;;;;;;;-140.72;100.00;52591.75;4957418;29;19926;-68
2022/05/24 00:25:45;;;;;;;;;;;;;;;-140.72;100.00;52575.50;4957623;29;19919;-67
2022/05/24 00:28:11;;;;;;;;;;;;;;;-140.72;100.00;52524.78;4957403;29;19922;-68
2022/05/24 00:30:37;;;;;;;;;;;;;;;-140.72;100.00;52530.88;4940065;29;19929;-67
2022/05/24 00:33:02;;;;;;;;;;;;;;;-140.72;100.00;52557.25;4939957;29;19919;-67
2022/05/24 00:35:28;;;;;;;;;;;;;;;-140.72;100.00;52563.34;4940133;29;19922;-67
2022/05/24 00:37:53;;;;;;;;;;;;;;;-140.72;100.00;52543.03;4957663;28;19933;-68
2022/05/24 00:40:30;;;;;;;;;;;;;;;-140.72;100.00;52575.50;4936541;29;19919;-67
2022/05/24 00:42:56;;;;;;;;;;;;;;;-140.72;100.00;52575.50;4937945;29;19918;-67
2022/05/24 00:45:44;;;;;;;;;;;;;;;-140.72;100.00;52583.63;4936663;29;19926;-68
2022/05/24 00:48:22;;;;;;;;;;;;;;;-140.72;100.00;52577.53;4932934;29;19919;-67
2022/05/24 00:53:51;;;;;;;;;;;;;;;-140.72;100.00;52597.84;4938293;29;20291;-67
2022/05/24 00:56:24;;;;;;;;;;;;;;;-140.72;100.00;52567.41;4938228;29;19983;-67
2022/05/24 00:59:19;;;;;;;;;;;;;;;-140.72;100.00;52571.47;4936836;29;19957;-67
2022/05/24 01:01:47;;;;;;;;;;;;;;;-140.72;100.00;52559.28;4912730;29;20378;-67
2022/05/24 01:04:14;;;;;;;;;;;;;;;-140.72;100.00;52589.72;4936394;29;19918;-68
2022/05/24 01:06:39;;;;;;;;;;;;;;;-140.72;100.00;52577.53;4920384;29;19922;-67
2022/05/24 01:09:07;;;;;;;;;;;;;;;-140.72;100.00;52581.59;4920338;29;20010;-67
2022/05/24 01:11:34;;;;;;;;;;;;;;;-140.72;100.00;52571.47;4920384;29;19938;-67
2022/05/24 01:14:00;;;;;;;;;;;;;;;-140.72;100.00;52549.13;4920605;29;19990;-67
2022/05/24 01:16:25;;;;;;;;;;;;;;;-140.72;100.00;52599.88;4920668;29;19919;-67
2022/05/24 01:18:52;;;;;;;;;;;;;;;-140.72;100.00;52585.66;4937429;29;19918;-67
2022/05/24 01:21:17;;;;;;;;;;;;;;;-140.72;100.00;52593.78;4937377;29;19971;-66
2022/05/24 01:24:02;;;;;;;;;;;;;;;-140.72;100.00;52555.22;4955331;29;19926;-67
2022/05/24 01:26:33;;;;;;;;;;;;;;;-140.72;100.00;52614.06;4938860;29;20017;-67
2022/05/24 01:29:00;;;;;;;;;;;;;;;-140.72;100.00;52589.72;4956889;29;19919;-67
2022/05/24 01:36:09;;;;;;;;;;;;;;;-140.72;100.00;52599.88;4956206;29;20294;-66
2022/05/24 01:36:56;;;;;;;;;;;;;;;-140.72;100.00;52569.44;4956324;29;19929;-68
2022/05/24 01:39:54;;;;;;;;;;;;;;;-140.72;100.00;52549.13;4943070;29;19919;-67
2022/05/24 01:42:20;;;;;;;;;;;;;;;-140.72;100.00;52581.59;4937238;29;19919;-67
2022/05/24 01:47:54;;;;;;;;;;;;;;;-140.72;100.00;52605.94;4936896;29;19926;-68
2022/05/24 01:50:20;;;;;;;;;;;;;;;-140.72;100.00;52591.75;4919400;29;19926;-68
2022/05/24 01:52:52;;;;;;;;;;;;;;;-140.72;100.00;52612.03;4919474;29;19958;-68
2022/05/24 01:55:31;;;;;;;;;;;;;;;-140.72;100.00;52577.53;4936466;29;19919;-68
2022/05/24 01:58:00;;;;;;;;;;;;;;;-140.72;100.00;52597.84;4935295;29;20294;-68
2022/05/24 02:00:25;;;;;;;;;;;;;;;-140.72;100.00;52618.13;4936482;29;19926;-68
2022/05/24 02:02:50;;;;;;;;;;;;;;;-140.72;100.00;52614.06;4919517;29;19919;-68
2022/05/24 02:05:48;;;;;;;;;;;;;;;-140.72;100.00;52589.72;4936380;29;19973;-68
2022/05/24 02:08:13;;;;;;;;;;;;;;;-140.72;100.00;52563.34;4924655;29;19945;-68
2022/05/24 02:11:11;;;;;;;;;;;;;;;-140.72;100.00;52589.72;4936423;29;20383;-67
2022/05/24 02:13:39;;;;;;;;;;;;;;;-140.72;100.00;52601.91;4924774;29;19919;-68
2022/05/24 02:16:08;;;;;;;;;;;;;;;-140.72;100.00;52573.50;4950031;29;20376;-68
2022/05/24 02:18:34;;;;;;;;;;;;;;;-140.72;100.00;52573.50;4955486;29;19934;-68
2022/05/24 02:20:59;;;;;;;;;;;;;;;-140.72;100.00;52610.00;4955168;29;19925;-68
2022/05/24 02:23:24;;;;;;;;;;;;;;;-140.72;100.00;52595.81;4955369;29;19982;-68
2022/05/24 02:25:53;;;;;;;;;;;;;;;-140.72;100.00;52601.91;4955108;29;19935;-68
2022/05/24 02:28:20;;;;;;;;;;;;;;;-140.72;100.00;52583.63;4955115;29;19925;-67
2022/05/24 02:30:50;;;;;;;;;;;;;;;-140.72;100.00;52630.31;4954740;28;20017;-68
2022/05/24 02:41:29;;;;;;;;;;;;;;;-140.72;100.00;52569.44;5398156;23;19933;-69
2022/05/24 02:43:59;;;;;;;;;;;;;;;-140.72;100.00;52614.06;4957395;28;19922;-69
2022/05/24 02:46:24;;;;;;;;;;;;;;;-140.72;100.00;52599.88;4974316;28;20372;-69
2022/05/24 02:48:49;;;;;;;;;;;;;;;-140.72;100.00;52614.06;4974062;28;19918;-69
2022/05/24 02:51:15;;;;;;;;;;;;;;;-140.72;100.00;52622.19;4973932;28;20017;-69
2022/05/24 02:53:41;;;;;;;;;;;;;;;-140.72;100.00;52563.34;4973988;28;19918;-69
2022/05/24 02:56:07;;;;;;;;;;;;;;;-140.72;100.00;52577.53;4956697;28;19985;-69
2022/05/24 02:58:33;;;;;;;;;;;;;;;-140.72;100.00;52585.66;4974572;28;19918;-69
2022/05/24 03:00:58;;;;;;;;;;;;;;;-140.72;100.00;52605.94;4956707;28;19925;-69
2022/05/24 03:03:23;;;;;;;;;;;;;;;-140.72;100.00;52610.00;4974379;28;20267;-69
2022/05/24 03:05:49;;;;;;;;;;;;;;;-140.72;100.00;52599.88;4974311;28;19918;-69
2022/05/24 03:10:57;;;;;;;;;;;;;;;-140.72;100.00;52605.94;4974135;28;20353;-69
2022/05/24 03:16:07;;;;;;;;;;;;;;;-140.72;100.00;52616.09;4974792;28;19929;-69
2022/05/24 03:18:33;;;;;;;;;;;;;;;-140.72;100.00;52593.78;4974378;28;19972;-69
2022/05/24 03:20:58;;;;;;;;;;;;;;;-140.72;100.00;52601.91;4974712;28;20101;-69
2022/05/24 03:23:23;;;;;;;;;;;;;;;-140.72;100.00;52597.84;4978212;28;20342;-69
2022/05/24 03:25:48;;;;;;;;;;;;;;;-140.72;100.00;52622.19;4977524;28;20366;-69
2022/05/24 03:28:17;;;;;;;;;;;;;;;-140.72;100.00;52575.50;4977555;28;20316;-69
2022/05/24 03:30:43;;;;;;;;;;;;;;;-140.72;100.00;52593.78;4977592;28;20029;-69
2022/05/24 03:33:09;;;;;;;;;;;;;;;-140.72;100.00;52624.22;4977207;28;19925;-69
2022/05/24 03:35:34;;;;;;;;;;;;;;;-140.72;100.00;52638.41;4960512;28;19918;-69
2022/05/24 03:37:59;;;;;;;;;;;;;;;-140.72;100.00;52618.13;4976961;28;19930;-69
2022/05/24 03:40:25;;;;;;;;;;;;;;;-140.72;100.00;52597.84;4976642;28;19933;-69
2022/05/24 03:42:54;;;;;;;;;;;;;;;-140.72;100.00;52569.44;4977336;28;19937;-69
2022/05/24 03:45:20;;;;;;;;;;;;;;;-140.72;100.00;52626.25;4977754;28;19941;-69
2022/05/24 03:47:45;;;;;;;;;;;;;;;-140.72;100.00;52650.59;4977199;28;20355;-69
2022/05/24 03:50:10;;;;;;;;;;;;;;;-140.72;100.00;52610.00;4977214;28;19980;-69
2022/05/24 03:52:35;;;;;;;;;;;;;;;-140.72;100.00;52573.50;4972708;28;19919;-69
2022/05/24 03:55:00;;;;;;;;;;;;;;;-140.72;100.00;52628.28;4959314;28;20347;-69
2022/05/24 04:00:12;;;;;;;;;;;;;;;-140.72;100.00;52618.13;4977299;28;20385;-69
2022/05/24 04:02:38;;;;;;;;;;;;;;;-140.72;100.00;52601.91;4977227;28;19918;-69
2022/05/24 04:05:04;;;;;;;;;;;;;;;-140.72;100.00;52587.69;4976949;28;19918;-69
2022/05/24 04:07:29;;;;;;;;;;;;;;;-140.72;100.00;52601.91;4976987;28;19918;-69
2022/05/24 04:09:54;;;;;;;;;;;;;;;-140.72;100.00;52599.88;4977198;28;20392;-71
2022/05/24 04:12:19;;;;;;;;;;;;;;;-140.72;100.00;52607.97;4962560;28;20208;-68
2022/05/24 04:14:44;;;;;;;;;;;;;;;-140.72;100.00;52589.72;4987665;28;19925;-69
2022/05/24 04:17:09;;;;;;;;;;;;;;;-140.72;100.00;52634.38;4987795;28;19918;-70
2022/05/24 04:19:35;;;;;;;;;;;;;;;-140.72;100.00;52597.84;4975140;28;20346;-69
2022/05/24 04:22:00;;;;;;;;;;;;;;;-140.72;100.00;52610.00;4948139;29;19958;-69
2022/05/24 04:24:25;;;;;;;;;;;;;;;-140.72;100.00;52603.94;4953519;28;20025;-69
2022/05/24 04:26:50;;;;;;;;;;;;;;;-140.72;100.00;52610.00;4972360;29;19930;-70
2022/05/24 04:29:16;;;;;;;;;;;;;;;-140.72;100.00;52577.53;4951922;29;19918;-69
2022/05/24 04:31:41;;;;;;;;;;;;;;;-140.72;100.00;52595.81;4952651;29;19946;-69
2022/05/24 04:34:07;;;;;;;;;;;;;;;-140.72;100.00;52587.69;4968538;29;19919;-69
2022/05/24 04:36:32;;;;;;;;;;;;;;;-140.72;100.00;52610.00;4973831;28;19997;-71
2022/05/24 04:38:58;;;;;;;;;;;;;;;-140.72;100.00;52626.25;4990043;28;20001;-71
2022/05/24 04:44:07;;;;;;;;;;;;;;;-140.72;100.00;52628.28;4972772;28;19960;-71
2022/05/24 04:49:19;;;;;;;;;;;;;;;-140.72;100.00;52620.16;4976636;28;19933;-71
2022/05/24 04:51:44;;;;;;;;;;;;;;;-140.72;100.00;52603.94;4974368;28;19970;-70
2022/05/24 04:54:09;;;;;;;;;;;;;;;-140.72;100.00;52603.94;4970508;29;20252;-71
2022/05/24 04:56:35;;;;;;;;;;;;;;;-140.72;100.00;52585.66;4946222;29;19930;-71
2022/05/24 04:59:00;;;;;;;;;;;;;;;-140.72;100.00;52628.28;4957041;29;20163;-71
2022/05/24 05:01:25;;;;;;;;;;;;;;;-140.72;100.00;52607.97;4956681;29;19923;-71
2022/05/24 05:03:50;;;;;;;;;;;;;;;-140.72;100.00;52597.84;4939434;29;19923;-71
2022/05/24 05:06:15;;;;;;;;;;;;;;;-140.72;100.00;52632.34;4956553;29;19922;-71
2022/05/24 05:08:41;;;;;;;;;;;;;;;-140.72;100.00;52630.31;4945628;28;19922;-71
2022/05/24 05:11:06;;;;;;;;;;;;;;;-140.72;100.00;52573.50;4975999;28;19926;-71
2022/05/24 05:13:31;;;;;;;;;;;;;;;-140.72;100.00;52618.13;4961902;28;20375;-71
2022/05/24 05:15:57;;;;;;;;;;;;;;;-140.72;100.00;52610.00;4945920;29;19926;-70
2022/05/24 05:18:24;;;;;;;;;;;;;;;-140.72;100.00;52603.94;4944717;28;19918;-71
2022/05/24 05:20:49;;;;;;;;;;;;;;;-140.72;100.00;52585.66;4953042;28;19922;-72
2022/05/24 05:23:15;;;;;;;;;;;;;;;-140.72;100.00;52616.09;4945901;29;19925;-71
2022/05/24 05:25:42;;;;;;;;;;;;;;;-140.72;100.00;52646.53;4934302;29;20415;-72
2022/05/24 05:28:08;;;;;;;;;;;;;;;-140.72;100.00;52638.41;4942935;29;20455;-71
2022/05/24 05:33:31;;;;;;;;;;;;;;;-140.72;100.00;52640.44;4890439;29;19922;-71
2022/05/24 05:35:56;;;;;;;;;;;;;;;-140.72;100.00;52626.25;4942229;28;19942;-71
2022/05/24 05:38:22;;;;;;;;;;;;;;;-140.72;100.00;52591.75;4943573;28;19923;-73
2022/05/24 05:40:49;;;;;;;;;;;;;;;-140.72;100.00;52585.66;4937794;29;19923;-71
2022/05/24 05:43:14;;;;;;;;;;;;;;;-140.72;100.00;52555.22;4944074;28;19919;-72
2022/05/24 05:45:39;;;;;;;;;;;;;;;-140.72;100.00;52595.81;4948900;28;19926;-71
2022/05/24 05:48:05;;;;;;;;;;;;;;;-140.72;100.00;52630.31;4946051;29;19923;-72
2022/05/24 05:50:30;;;;;;;;;;;;;;;-140.72;100.00;52601.91;4950143;28;20279;-71
2022/05/24 05:52:56;;;;;;;;;;;;;;;-140.72;100.00;52614.06;4951344;28;19977;-72
2022/05/24 05:55:25;;;;;;;;;;;;;;;-140.72;100.00;52610.00;4951243;28;19926;-70
2022/05/24 05:57:50;;;;;;;;;;;;;;;-140.72;100.00;52591.75;4970172;28;20319;-71
2022/05/24 06:00:16;;;;;;;;;;;;;;;-140.72;100.00;52597.84;4978618;28;19929;-72
2022/05/24 06:02:41;;;;;;;;;;;;;;;-140.72;100.00;52638.41;4975682;28;20297;-72
2022/05/24 06:05:07;;;;;;;;;;;;;;;-140.72;100.00;52573.50;4977193;28;19919;-75
2022/05/24 06:07:32;;;;;;;;;;;;;;;-140.72;100.00;52614.06;4937320;29;20344;-72
2022/05/24 06:09:58;;;;;;;;;;;;;;;-140.72;100.00;52616.09;4937846;29;19929;-71
2022/05/24 06:12:23;;;;;;;;;;;;;;;-140.72;100.00;52605.94;4944305;29;19919;-72
2022/05/24 06:14:49;;;;;;;;;;;;;;;-140.72;100.00;52591.75;4941708;29;19985;-71
2022/05/24 06:17:14;;;;;;;;;;;;;;;-140.72;100.00;52607.97;4939210;29;19925;-70
2022/05/24 06:19:39;;;;;;;;;;;;;;;-140.72;100.00;52565.38;4938104;29;20021;-70
2022/05/24 06:22:04;;;;;;;;;;;;;;;-140.72;100.00;52620.16;4952104;28;19919;-71
2022/05/24 06:24:30;;;;;;;;;;;;;;;-140.72;100.00;52589.72;4936793;29;20073;-71
2022/05/24 06:26:56;;;;;;;;;;;;;;;-140.72;100.00;52591.75;4936465;29;19926;-70
2022/05/24 06:29:22;;;;;;;;;;;;;;;-140.72;100.00;52569.44;4936923;29;19960;-71
2022/05/24 06:31:48;;;;;;;;;;;;;;;-140.72;100.00;52567.41;4937181;28;19918;-71
2022/05/24 06:34:13;;;;;;;;;;;;;;;-140.72;100.00;52585.66;4935474;29;20367;-70
2022/05/24 06:36:38;;;;;;;;;;;;;;;-140.72;100.00;52599.88;4936223;29;19926;-70
2022/05/24 06:39:03;;;;;;;;;;;;;;;-140.72;100.00;52561.31;4950747;28;19923;-70
2022/05/24 06:41:28;;;;;;;;;;;;;;;-140.72;100.00;52528.84;4936124;29;19922;-70
2022/05/24 06:43:54;;;;;;;;;;;;;;;-140.72;100.00;52553.19;4936311;29;20316;-70
2022/05/24 06:46:19;;;;;;;;;;;;;;;-140.72;100.00;52541.03;4936258;29;20009;-70
2022/05/24 06:48:44;;;;;;;;;;;;;;;-140.72;100.00;52557.25;4935581;29;19986;-70
2022/05/24 06:51:14;;;;;;;;;;;;;;;-140.72;100.00;52585.66;4936381;29;19919;-70
2022/05/24 06:53:40;;;;;;;;;;;;;;;-140.72;100.00;52595.81;4936243;29;19919;-70
2022/05/24 06:56:06;;;;;;;;;;;;;;;-140.72;100.00;52526.81;4939188;29;19922;-70
2022/05/24 06:58:31;;;;;;;;;;;;;;;-140.72;100.00;52553.19;4940254;29;19949;-72
2022/05/24 07:03:40;;;;;;;;;;;;;;;-140.72;100.00;52595.81;4940226;29;20039;-72
2022/05/24 07:06:05;;;;;;;;;;;;;;;-140.72;100.00;52599.88;4939631;29;19962;-72
2022/05/24 07:08:31;;;;;;;;;;;;;;;-140.72;100.00;52573.50;4941196;29;20003;-72
2022/05/24 07:10:56;;;;;;;;;;;;;;;-140.72;100.00;52595.81;4938956;29;19919;-72
2022/05/24 07:13:21;;;;;;;;;;;;;;;-140.72;100.00;52581.59;4939602;29;19919;-72
2022/05/24 07:15:47;;;;;;;;;;;;;;;-140.72;100.00;52565.38;4938343;29;19923;-72
2022/05/24 07:18:13;;;;;;;;;;;;;;;-140.72;100.00;52589.72;4940008;29;19961;-72
2022/05/24 07:20:38;;;;;;;;;;;;;;;-140.72;100.00;52589.72;4939613;29;19919;-72
2022/05/24 07:23:07;;;;;;;;;;;;;;;-140.72;100.00;52573.50;4947913;28;19919;-72
2022/05/24 07:25:32;;;;;;;;;;;;;;;-140.72;100.00;52575.50;4961759;29;19926;-72
2022/05/24 07:27:57;;;;;;;;;;;;;;;-140.72;100.00;52563.34;4974758;28;20045;-72
2022/05/24 07:30:22;;;;;;;;;;;;;;;-140.72;100.00;52630.31;4979611;28;19918;-72
2022/05/24 07:32:47;;;;;;;;;;;;;;;-140.72;100.00;52618.13;4959776;28;19949;-72
2022/05/24 07:35:13;;;;;;;;;;;;;;;-140.72;100.00;52585.66;4952505;28;19926;-72
2022/05/24 07:37:38;;;;;;;;;;;;;;;-140.72;100.00;52585.66;4958982;29;20363;-72
2022/05/24 07:45:49;;;;;;;;;;;;;;;-140.72;100.00;52626.25;4938745;29;20401;-72
2022/05/24 07:48:14;;;;;;;;;;;;;;;-140.72;100.00;52610.00;4947087;29;20312;-72
2022/05/24 07:50:40;;;;;;;;;;;;;;;-140.72;100.00;52630.31;4949424;29;19919;-72
2022/05/24 07:53:05;;;;;;;;;;;;;;;-140.72;100.00;52628.28;4930185;29;20319;-72
2022/05/24 07:55:31;;;;;;;;;;;;;;;-140.72;100.00;52624.22;4932664;29;19954;-73
2022/05/24 07:57:57;;;;;;;;;;;;;;;-140.72;100.00;52628.28;4945918;29;19983;-73
2022/05/24 08:00:23;;;;;;;;;;;;;;;-140.72;100.00;52607.97;4946793;29;19919;-73
2022/05/24 08:02:49;;;;;;;;;;;;;;;-140.72;100.00;52614.06;4953933;29;19919;-73
2022/05/24 08:05:14;;;;;;;;;;;;;;;-140.72;100.00;52620.16;4969872;29;19918;-73
2022/05/24 08:07:40;;;;;;;;;;;;;;;-140.72;100.00;52581.59;4965220;28;19974;-72
2022/05/24 08:10:05;;;;;;;;;;;;;;;-140.72;100.00;52589.72;4960298;29;19941;-72
2022/05/24 08:12:32;;;;;;;;;;;;;;;-140.72;100.00;52555.22;4945628;29;19923;-73
2022/05/24 08:14:58;;;;;;;;;;;;;;;-140.72;100.00;52530.88;4961260;29;20010;-74
2022/05/24 08:17:24;;;;;;;;;;;;;;;-140.72;100.00;52561.31;4958794;29;20283;-72
2022/05/24 08:19:49;;;;;;;;;;;;;;;-140.72;100.00;52583.63;4958344;29;19925;-73
2022/05/24 08:22:14;;;;;;;;;;;;;;;-140.72;100.00;52573.50;4957796;29;19927;-73
2022/05/24 08:24:39;;;;;;;;;;;;;;;-140.72;100.00;52581.59;4957678;29;19918;-72
2022/05/24 08:27:05;;;;;;;;;;;;;;;-140.72;100.00;52616.09;4939709;29;19959;-72
2022/05/24 08:29:30;;;;;;;;;;;;;;;-140.72;100.00;52632.34;4956934;29;19926;-72
2022/05/24 08:31:55;;;;;;;;;;;;;;;-140.72;100.00;52597.84;4947133;29;19942;-72
2022/05/24 08:34:20;;;;;;;;;;;;;;;-140.72;100.00;52650.59;4950864;28;19933;-72
2022/05/24 08:36:45;;;;;;;;;;;;;;;-140.72;100.00;52640.44;4945738;29;19930;-72
2022/05/24 08:39:11;;;;;;;;;;;;;;;-140.72;100.00;52626.25;4930161;29;19922;-73
2022/05/24 08:41:46;;;;;;;;;;;;;;;-140.72;100.00;52605.94;4943975;29;19945;-73
2022/05/24 08:50:04;;;;;;;;;;;;;;;-140.72;100.00;52553.19;4957206;29;19929;-73
2022/05/24 08:52:49;;;;;;;;;;;;;;;-140.72;100.00;52569.44;4955509;28;19962;-72
2022/05/24 08:55:15;;;;;;;;;;;;;;;-140.72;100.00;52541.03;4944498;28;19969;-72
2022/05/24 08:57:59;;;;;;;;;;;;;;;-140.72;100.00;52545.06;4940591;29;19954;-73
2022/05/24 09:00:28;;;;;;;;;;;;;;;-140.72;100.00;52512.59;4945098;29;19919;-73
2022/05/24 09:02:54;;;;;;;;;;;;;;;-140.72;100.00;52494.34;4956477;29;19925;-73
2022/05/24 09:05:25;;;;;;;;;;;;;;;-140.72;100.00;52488.25;4938571;29;20021;-73
2022/05/24 09:07:51;;;;;;;;;;;;;;;-140.72;100.00;52451.72;4956023;29;19986;-73
2022/05/24 09:10:18;;;;;;;;;;;;;;;-140.72;100.00;52472.03;4956539;29;20357;-72
2022/05/24 09:13:02;;;;;;;;;;;;;;;-140.72;100.00;52510.59;4938622;29;20410;-72
2022/05/24 09:15:30;;;;;;;;;;;;;;;-140.72;100.00;52589.72;4955634;28;19924;-73
2022/05/24 09:18:26;;;;;;;;;;;;;;;-140.72;100.00;52610.00;4938452;28;20373;-73
2022/05/24 09:20:51;;;;;;;;;;;;;;;-140.72;100.00;52612.03;4926240;29;20287;-72
2022/05/24 09:23:19;;;;;;;;;;;;;;;-140.72;100.00;52632.34;4938665;29;19993;-72
2022/05/24 09:25:53;;;;;;;;;;;;;;;-140.72;100.00;52610.00;4938273;29;19919;-72
2022/05/24 09:28:18;;;;;;;;;;;;;;;-140.72;100.00;52656.69;4956773;29;19944;-72
2022/05/24 09:30:43;;;;;;;;;;;;;;;-140.72;100.00;52652.63;4945176;29;19914;-72
2022/05/24 09:33:19;;;;;;;;;;;;;;;-140.72;100.00;52697.28;4941811;29;19918;-73
2022/05/24 09:36:09;;;;;;;;;;;;;;;-140.72;100.00;52616.09;4938056;29;19929;-73
2022/05/24 09:38:38;;;;;;;;;;;;;;;-140.72;100.00;52674.94;4936259;29;19970;-73
2022/05/24 09:41:18;;;;;;;;;;;;;;;-140.72;100.00;52601.91;4935784;29;19926;-73
2022/05/24 09:43:57;;;;;;;;;;;;;;;-140.72;100.00;52561.31;4934491;29;19923;-73
2022/05/24 09:46:23;;;;;;;;;;;;;;;-140.72;100.00;52585.66;4936373;29;19942;-73
2022/05/24 09:48:54;;;;;;;;;;;;;;;-140.72;100.00;52601.91;4936003;29;20007;-73
2022/05/24 09:51:23;;;;;;;;;;;;;;;-140.72;100.00;52545.06;4936065;29;19968;-73
2022/05/24 09:53:53;;;;;;;;;;;;;;;-140.72;100.00;52541.03;4935892;29;19923;-72
2022/05/24 09:56:21;;;;;;;;;;;;;;;-140.72;100.00;52585.66;4935874;29;19923;-72
2022/05/24 09:58:55;;;;;;;;;;;;;;;-140.72;100.00;52545.06;4935905;29;19923;-72
2022/05/24 10:01:30;;;;;;;;;;;;;;;-140.72;100.00;52555.22;4935816;29;19930;-72
2022/05/24 10:04:08;;;;;;;;;;;;;;;-140.72;100.00;52601.91;4935723;29;19923;-72
2022/05/24 10:06:33;;;;;;;;;;;;;;;-140.72;100.00;52583.63;4935321;29;19923;-73
2022/05/24 10:08:58;;;;;;;;;;;;;;;-140.72;100.00;52543.03;4934291;29;19926;-73
2022/05/24 10:11:27;;;;;;;;;;;;;;;-140.72;100.00;52567.41;4935923;29;19985;-73
2022/05/24 10:14:10;;;;;;;;;;;;;;;-140.72;100.00;52561.31;4936017;29;19977;-73
2022/05/24 10:16:37;;;;;;;;;;;;;;;-140.72;100.00;52498.41;4918986;29;19974;-73
2022/05/24 10:19:20;;;;;;;;;;;;;;;-140.72;100.00;52581.59;4936104;29;19923;-73
2022/05/24 10:21:57;;;;;;;;;;;;;;;-140.72;100.00;52528.84;4934130;29;19919;-72
2022/05/24 10:24:39;;;;;;;;;;;;;;;-140.72;100.00;52536.97;4938285;29;20006;-72
2022/05/24 10:27:13;;;;;;;;;;;;;;;-140.72;100.00;52520.72;4922233;29;19919;-73
2022/05/24 10:29:38;;;;;;;;;;;;;;;-140.72;100.00;52490.28;4955350;28;19918;-72
2022/05/24 10:32:07;;;;;;;;;;;;;;;-140.72;100.00;52486.22;4960509;28;19929;-73
2022/05/24 10:40:31;;;;;;;;;;;;;;;-140.72;100.00;52447.69;4975154;28;19925;-72
2022/05/24 10:43:04;;;;;;;;;;;;;;;-140.72;100.00;52445.66;4974043;28;19922;-72
2022/05/24 10:46:00;;;;;;;;;;;;;;;-140.72;100.00;52518.69;4955223;29;19918;-73
2022/05/24 10:48:33;;;;;;;;;;;;;;;-140.72;100.00;52484.19;4950819;28;19922;-72
2022/05/24 10:51:04;;;;;;;;;;;;;;;-140.72;100.00;52545.06;4950477;29;19919;-72
2022/05/24 10:53:38;;;;;;;;;;;;;;;-140.72;100.00;52488.25;4943243;29;19918;-72
2022/05/24 10:56:06;;;;;;;;;;;;;;;-140.72;100.00;52518.69;4933931;29;20006;-72
2022/05/24 10:58:37;;;;;;;;;;;;;;;-140.72;100.00;52419.28;4936901;29;19923;-73
2022/05/24 11:01:21;;;;;;;;;;;;;;;-140.72;100.00;52421.28;4946591;29;20065;-72
2022/05/24 11:03:49;;;;;;;;;;;;;;;-140.72;100.00;52492.31;4953312;29;19923;-72
2022/05/24 11:06:39;;;;;;;;;;;;;;;-140.72;100.00;52488.25;4954024;29;20058;-72
2022/05/24 11:09:06;;;;;;;;;;;;;;;-140.72;100.00;52536.97;4951100;29;20269;-72
2022/05/24 11:11:54;;;;;;;;;;;;;;;-140.72;100.00;52374.63;4924781;29;20015;-73
2022/05/24 11:14:38;;;;;;;;;;;;;;;-140.72;100.00;52309.69;4924912;29;19961;-73
2022/05/24 11:17:05;;;;;;;;;;;;;;;-140.72;100.00;52332.03;4935315;29;20035;-72
2022/05/24 11:19:35;;;;;;;;;;;;;;;-140.72;100.00;52222.44;4918313;29;19919;-72
2022/05/24 11:22:04;;;;;;;;;;;;;;;-140.72;100.00;52360.44;4919488;29;19938;-72
2022/05/24 11:24:48;;;;;;;;;;;;;;;-140.72;100.00;52461.88;4918615;29;19973;-73
2022/05/24 11:27:15;;;;;;;;;;;;;;;-140.72;100.00;52463.91;4936111;29;19927;-72
2022/05/24 11:29:48;;;;;;;;;;;;;;;-140.72;100.00;52317.81;4935587;29;19941;-72
2022/05/24 11:32:18;;;;;;;;;;;;;;;-140.72;100.00;52372.59;4938633;29;19930;-72
2022/05/24 11:35:01;;;;;;;;;;;;;;;-140.72;100.00;52261.00;4938793;29;19919;-72
2022/05/24 11:37:29;;;;;;;;;;;;;;;-140.72;100.00;52220.41;4956036;28;19918;-72
2022/05/24 11:39:54;;;;;;;;;;;;;;;-140.72;100.00;52183.91;4974231;28;19918;-72
2022/05/24 11:42:38;;;;;;;;;;;;;;;-140.72;100.00;52102.75;4975360;28;19976;-73
2022/05/24 11:45:21;;;;;;;;;;;;;;;-140.72;100.00;52112.88;4977285;28;19918;-72
2022/05/24 11:47:47;;;;;;;;;;;;;;;-140.72;100.00;52151.44;4976894;28;20386;-72
2022/05/24 11:50:30;;;;;;;;;;;;;;;-140.72;100.00;52129.13;4976817;28;19978;-72
2022/05/24 11:53:04;;;;;;;;;;;;;;;-140.72;100.00;52200.13;4976783;28;19925;-72
2022/05/24 11:55:47;;;;;;;;;;;;;;;-140.72;100.00;52183.91;4976794;28;19922;-72
2022/05/24 11:58:21;;;;;;;;;;;;;;;-140.72;100.00;52139.25;4976844;28;19946;-72
2022/05/24 12:00:57;;;;;;;;;;;;;;;-140.72;100.00;52143.31;4977281;28;20012;-72
2022/05/24 12:09:11;;;;;;;;;;;;;;;-140.72;100.00;52344.19;4977350;28;20361;-71
2022/05/24 12:11:37;;;;;;;;;;;;;;;-140.72;100.00;52392.88;4976910;28;20009;-72
2022/05/24 12:14:33;;;;;;;;;;;;;;;-140.72;100.00;52392.88;4976554;28;20016;-71
2022/05/24 12:17:01;;;;;;;;;;;;;;;-140.72;100.00;52443.63;4977180;28;19922;-73
2022/05/24 12:19:48;;;;;;;;;;;;;;;-140.72;100.00;52340.13;4976566;28;20346;-72
2022/05/24 12:22:20;;;;;;;;;;;;;;;-140.72;100.00;52210.28;4958779;28;19922;-73
2022/05/24 12:24:50;;;;;;;;;;;;;;;-140.72;100.00;52147.38;4976400;28;19918;-73
2022/05/24 12:27:18;;;;;;;;;;;;;;;-140.72;100.00;52267.09;4976116;28;19953;-73
2022/05/24 12:29:52;;;;;;;;;;;;;;;-140.72;100.00;52342.16;4942928;28;20017;-73
2022/05/24 12:32:18;;;;;;;;;;;;;;;-140.72;100.00;52380.72;4976701;28;20397;-73
2022/05/24 12:34:43;;;;;;;;;;;;;;;-140.72;100.00;52374.63;4976443;28;19973;-73
2022/05/24 12:37:18;;;;;;;;;;;;;;;-140.72;100.00;52427.38;4976372;28;20294;-73
2022/05/24 12:40:03;;;;;;;;;;;;;;;-140.72;100.00;52457.81;4976077;28;20373;-72
2022/05/24 12:42:28;;;;;;;;;;;;;;;-140.72;100.00;52459.84;4975757;28;19957;-73
2022/05/24 12:44:53;;;;;;;;;;;;;;;-140.72;100.00;52425.34;4976786;28;20008;-73
2022/05/24 12:47:20;;;;;;;;;;;;;;;-140.72;100.00;52433.47;4977064;28;19984;-73
2022/05/24 12:49:48;;;;;;;;;;;;;;;-140.72;100.00;52429.41;4976592;28;20005;-73
2022/05/24 12:52:14;;;;;;;;;;;;;;;-140.72;100.00;52478.13;4976367;28;19993;-73
2022/05/24 12:54:44;;;;;;;;;;;;;;;-140.72;100.00;52467.97;4975803;28;20306;-73
2022/05/24 12:57:14;;;;;;;;;;;;;;;-140.72;100.00;52484.19;4976431;28;19922;-73
2022/05/24 12:59:40;;;;;;;;;;;;;;;-140.72;100.00;52441.59;4959238;28;19925;-72
2022/05/24 13:02:15;;;;;;;;;;;;;;;-140.72;100.00;52484.19;4937864;28;19922;-73
2022/05/24 13:04:41;;;;;;;;;;;;;;;-140.72;100.00;52488.25;4942337;29;19941;-72
2022/05/24 13:07:18;;;;;;;;;;;;;;;-140.72;100.00;52504.50;4947594;29;19919;-72
2022/05/24 13:09:43;;;;;;;;;;;;;;;-140.72;100.00;52510.59;4937611;29;20263;-72
2022/05/24 13:12:10;;;;;;;;;;;;;;;-140.72;100.00;52502.47;4937696;29;19919;-72
2022/05/24 13:14:38;;;;;;;;;;;;;;;-140.72;100.00;52447.69;4951846;29;19919;-72
2022/05/24 13:17:05;;;;;;;;;;;;;;;-140.72;100.00;52431.44;4937423;29;19919;-72
2022/05/24 13:19:42;;;;;;;;;;;;;;;-140.72;100.00;52445.66;4937065;29;19919;-72
2022/05/24 13:22:07;;;;;;;;;;;;;;;-140.72;100.00;52394.91;4938455;28;20316;-72
2022/05/24 13:24:33;;;;;;;;;;;;;;;-140.72;100.00;52419.28;4931440;29;19923;-72
2022/05/24 13:27:00;;;;;;;;;;;;;;;-140.72;100.00;52401.00;4945023;28;19922;-72